sensor_id;sensor_type;location;lat;lon;timestamp;pressure;altitude;pressure_sealevel;temperature;humidity
75945;BME280;64628;50.104;14.614;2023-07-31T00:00:51;98509.83;;;17.95;46.75
75945;BME280;64628;50.104;14.614;2023-07-31T00:03:19;98509.72;;;17.91;46.68
75945;BME280;64628;50.104;14.614;2023-07-31T00:05:45;98507.73;;;18.14;46.60
75945;BME280;64628;50.104;14.614;2023-07-31T00:08:05;98508.83;;;18.11;46.43
75945;BME280;64628;50.104;14.614;2023-07-31T00:10:30;98510.64;;;17.56;46.57
75945;BME280;64628;50.104;14.614;2023-07-31T00:13:01;98509.46;;;17.80;46.63
75945;BME280;64628;50.104;14.614;2023-07-31T00:15:21;98510.37;;;17.81;46.93
75945;BME280;64628;50.104;14.614;2023-07-31T00:17:46;98508.90;;;17.99;46.67
75945;BME280;64628;50.104;14.614;2023-07-31T00:20:11;98508.63;;;17.72;46.86
75945;BME280;64628;50.104;14.614;2023-07-31T00:22:42;98510.65;;;17.98;46.76
75945;BME280;64628;50.104;14.614;2023-07-31T00:25:03;98509.42;;;17.70;46.97
75945;BME280;64628;50.104;14.614;2023-07-31T00:27:32;98508.78;;;17.72;46.94
75945;BME280;64628;50.104;14.614;2023-07-31T00:29:51;98508.18;;;17.77;46.91
75945;BME280;64628;50.104;14.614;2023-07-31T00:32:18;98504.94;;;18.01;46.58
75945;BME280;64628;50.104;14.614;2023-07-31T00:34:42;98504.58;;;17.98;46.55
75945;BME280;64628;50.104;14.614;2023-07-31T00:37:13;98509.02;;;17.96;46.47
75945;BME280;64628;50.104;14.614;2023-07-31T00:39:39;98509.46;;;17.72;46.35
75945;BME280;64628;50.104;14.614;2023-07-31T00:41:59;98511.55;;;17.90;46.47
75945;BME280;64628;50.104;14.614;2023-07-31T00:44:28;98513.10;;;18.16;46.41
75945;BME280;64628;50.104;14.614;2023-07-31T00:46:49;98514.19;;;17.53;46.52
75945;BME280;64628;50.104;14.614;2023-07-31T00:49:15;98512.82;;;17.49;46.34
75945;BME280;64628;50.104;14.614;2023-07-31T00:51:40;98514.04;;;17.71;46.27
75945;BME280;64628;50.104;14.614;2023-07-31T00:54:06;98512.50;;;17.69;46.07
75945;BME280;64628;50.104;14.614;2023-07-31T00:56:34;98512.55;;;17.53;46.52
75945;BME280;64628;50.104;14.614;2023-07-31T00:58:55;98514.38;;;17.45;46.76
75945;BME280;64628;50.104;14.614;2023-07-31T01:01:20;98513.69;;;17.51;46.67
75945;BME280;64628;50.104;14.614;2023-07-31T01:03:55;98516.51;;;17.49;46.61
75945;BME280;64628;50.104;14.614;2023-07-31T01:06:16;98512.48;;;17.51;46.74
75945;BME280;64628;50.104;14.614;2023-07-31T01:08:44;98515.04;;;17.24;46.46
75945;BME280;64628;50.104;14.614;2023-07-31T01:11:07;98512.27;;;17.48;46.36
75945;BME280;64628;50.104;14.614;2023-07-31T01:13:26;98511.33;;;17.69;46.31
75945;BME280;64628;50.104;14.614;2023-07-31T01:15:56;98510.68;;;17.49;46.15
75945;BME280;64628;50.104;14.614;2023-07-31T01:18:21;98508.21;;;17.46;46.16
75945;BME280;64628;50.104;14.614;2023-07-31T01:20:42;98507.71;;;17.63;46.49
75945;BME280;64628;50.104;14.614;2023-07-31T01:23:30;98507.34;;;17.34;46.59
75945;BME280;64628;50.104;14.614;2023-07-31T01:28:01;98500.00;;;17.59;46.47
75945;BME280;64628;50.104;14.614;2023-07-31T01:30:26;98498.23;;;17.32;46.61
75945;BME280;64628;50.104;14.614;2023-07-31T01:32:50;98495.89;;;17.36;46.52
75945;BME280;64628;50.104;14.614;2023-07-31T01:35:19;98493.75;;;17.31;46.73
75945;BME280;64628;50.104;14.614;2023-07-31T01:37:39;98490.41;;;17.13;46.73
75945;BME280;64628;50.104;14.614;2023-07-31T01:40:06;98484.08;;;17.46;46.27
75945;BME280;64628;50.104;14.614;2023-07-31T01:42:31;98483.04;;;17.74;46.48
75945;BME280;64628;50.104;14.614;2023-07-31T01:44:55;98479.92;;;17.44;46.55
75945;BME280;64628;50.104;14.614;2023-07-31T01:47:24;98482.80;;;17.53;46.37
75945;BME280;64628;50.104;14.614;2023-07-31T01:49:45;98481.70;;;17.56;46.43
75945;BME280;64628;50.104;14.614;2023-07-31T01:52:12;98478.33;;;17.30;46.29
75945;BME280;64628;50.104;14.614;2023-07-31T01:54:36;98476.54;;;17.34;46.45
75945;BME280;64628;50.104;14.614;2023-07-31T01:57:02;98473.54;;;17.64;46.01
75945;BME280;64628;50.104;14.614;2023-07-31T01:59:27;98472.43;;;17.46;46.28
75945;BME280;64628;50.104;14.614;2023-07-31T02:01:56;98473.09;;;17.56;46.20
75945;BME280;64628;50.104;14.614;2023-07-31T02:04:18;98474.04;;;17.54;45.92
75945;BME280;64628;50.104;14.614;2023-07-31T02:06:44;98472.59;;;17.26;46.21
75945;BME280;64628;50.104;14.614;2023-07-31T02:09:10;98471.81;;;17.45;46.16
75945;BME280;64628;50.104;14.614;2023-07-31T02:11:37;98466.07;;;17.80;45.79
75945;BME280;64628;50.104;14.614;2023-07-31T02:13:59;98468.19;;;17.47;45.60
75945;BME280;64628;50.104;14.614;2023-07-31T02:16:25;98468.74;;;17.58;45.27
75945;BME280;64628;50.104;14.614;2023-07-31T02:18:52;98470.83;;;17.90;45.81
75945;BME280;64628;50.104;14.614;2023-07-31T02:21:16;98471.08;;;17.70;45.34
75945;BME280;64628;50.104;14.614;2023-07-31T02:23:43;98473.10;;;17.66;45.82
75945;BME280;64628;50.104;14.614;2023-07-31T02:26:07;98469.76;;;17.68;45.81
75945;BME280;64628;50.104;14.614;2023-07-31T02:28:32;98470.48;;;17.70;45.50
75945;BME280;64628;50.104;14.614;2023-07-31T02:30:58;98471.31;;;17.70;45.30
75945;BME280;64628;50.104;14.614;2023-07-31T02:33:32;98472.48;;;17.65;45.24
75945;BME280;64628;50.104;14.614;2023-07-31T02:35:48;98473.05;;;17.35;45.38
75945;BME280;64628;50.104;14.614;2023-07-31T02:38:13;98471.47;;;17.37;45.37
75945;BME280;64628;50.104;14.614;2023-07-31T02:40:39;98470.67;;;17.58;45.22
75945;BME280;64628;50.104;14.614;2023-07-31T02:43:04;98466.85;;;17.56;45.03
75945;BME280;64628;50.104;14.614;2023-07-31T02:45:35;98462.88;;;17.76;45.07
75945;BME280;64628;50.104;14.614;2023-07-31T02:47:54;98465.21;;;17.43;45.26
75945;BME280;64628;50.104;14.614;2023-07-31T02:50:20;98464.75;;;17.43;45.15
75945;BME280;64628;50.104;14.614;2023-07-31T02:52:49;98464.16;;;17.39;45.50
75945;BME280;64628;50.104;14.614;2023-07-31T02:55:09;98462.80;;;17.66;45.13
75945;BME280;64628;50.104;14.614;2023-07-31T02:57:34;98466.83;;;17.42;45.17
75945;BME280;64628;50.104;14.614;2023-07-31T03:00:00;98465.20;;;17.46;45.15
75945;BME280;64628;50.104;14.614;2023-07-31T03:02:30;98466.70;;;17.44;44.95
75945;BME280;64628;50.104;14.614;2023-07-31T03:04:50;98464.77;;;17.21;44.68
75945;BME280;64628;50.104;14.614;2023-07-31T03:07:25;98461.93;;;17.10;45.07
75945;BME280;64628;50.104;14.614;2023-07-31T03:09:42;98464.89;;;17.15;44.51
75945;BME280;64628;50.104;14.614;2023-07-31T03:12:08;98467.80;;;17.26;44.93
75945;BME280;64628;50.104;14.614;2023-07-31T03:14:33;98465.56;;;17.37;44.67
75945;BME280;64628;50.104;14.614;2023-07-31T03:16:59;98465.32;;;17.11;44.57
75945;BME280;64628;50.104;14.614;2023-07-31T03:19:32;98463.88;;;17.36;44.46
75945;BME280;64628;50.104;14.614;2023-07-31T03:21:51;98460.88;;;17.36;44.67
75945;BME280;64628;50.104;14.614;2023-07-31T03:24:14;98461.47;;;17.09;44.58
75945;BME280;64628;50.104;14.614;2023-07-31T03:26:42;98456.60;;;17.29;44.46
75945;BME280;64628;50.104;14.614;2023-07-31T03:29:05;98458.78;;;17.50;44.66
75945;BME280;64628;50.104;14.614;2023-07-31T03:31:30;98459.75;;;17.15;44.43
75945;BME280;64628;50.104;14.614;2023-07-31T03:34:05;98458.93;;;17.48;44.65
75945;BME280;64628;50.104;14.614;2023-07-31T03:36:22;98459.23;;;17.54;44.46
75945;BME280;64628;50.104;14.614;2023-07-31T03:38:46;98457.76;;;17.25;44.25
75945;BME280;64628;50.104;14.614;2023-07-31T03:41:12;98458.86;;;17.08;43.92
75945;BME280;64628;50.104;14.614;2023-07-31T03:43:37;98459.41;;;17.21;44.04
75945;BME280;64628;50.104;14.614;2023-07-31T03:46:09;98461.34;;;17.28;44.03
75945;BME280;64628;50.104;14.614;2023-07-31T03:48:28;98461.11;;;17.38;43.78
75945;BME280;64628;50.104;14.614;2023-07-31T03:50:53;98459.68;;;17.12;43.72
75945;BME280;64628;50.104;14.614;2023-07-31T03:53:18;98462.78;;;17.44;43.69
75945;BME280;64628;50.104;14.614;2023-07-31T03:55:44;98464.94;;;17.20;43.93
75945;BME280;64628;50.104;14.614;2023-07-31T03:58:13;98464.22;;;17.25;43.76
75945;BME280;64628;50.104;14.614;2023-07-31T04:00:34;98467.35;;;17.25;44.09
75945;BME280;64628;50.104;14.614;2023-07-31T04:02:59;98470.28;;;17.54;44.58
75945;BME280;64628;50.104;14.614;2023-07-31T04:05:24;98468.10;;;17.25;44.35
75945;BME280;64628;50.104;14.614;2023-07-31T04:07:49;98470.29;;;17.52;44.29
75945;BME280;64628;50.104;14.614;2023-07-31T04:10:15;98467.60;;;17.70;44.92
75945;BME280;64628;50.104;14.614;2023-07-31T04:12:41;98465.90;;;16.85;45.54
75945;BME280;64628;50.104;14.614;2023-07-31T04:15:06;98465.09;;;17.01;46.14
75945;BME280;64628;50.104;14.614;2023-07-31T04:17:31;98462.08;;;17.10;46.39
75945;BME280;64628;50.104;14.614;2023-07-31T04:19:56;98462.73;;;17.03;46.70
75945;BME280;64628;50.104;14.614;2023-07-31T04:22:21;98460.54;;;17.01;46.77
75945;BME280;64628;50.104;14.614;2023-07-31T04:24:47;98456.99;;;16.92;46.48
75945;BME280;64628;50.104;14.614;2023-07-31T04:27:12;98452.97;;;16.92;46.55
75945;BME280;64628;50.104;14.614;2023-07-31T04:29:37;98458.53;;;16.78;46.72
75945;BME280;64628;50.104;14.614;2023-07-31T04:32:04;98458.86;;;17.10;46.42
75945;BME280;64628;50.104;14.614;2023-07-31T04:34:28;98458.61;;;17.11;46.26
75945;BME280;64628;50.104;14.614;2023-07-31T04:36:53;98460.04;;;17.20;46.18
75945;BME280;64628;50.104;14.614;2023-07-31T04:39:19;98459.78;;;16.92;46.07
75945;BME280;64628;50.104;14.614;2023-07-31T04:41:45;98455.01;;;17.19;46.13
75945;BME280;64628;50.104;14.614;2023-07-31T04:44:10;98453.59;;;17.26;46.58
75945;BME280;64628;50.104;14.614;2023-07-31T04:46:35;98447.55;;;17.30;46.25
75945;BME280;64628;50.104;14.614;2023-07-31T04:49:00;98446.89;;;16.78;46.28
75945;BME280;64628;50.104;14.614;2023-07-31T04:51:25;98442.67;;;17.33;46.79
75945;BME280;64628;50.104;14.614;2023-07-31T04:53:51;98443.27;;;17.42;46.27
75945;BME280;64628;50.104;14.614;2023-07-31T04:56:16;98445.67;;;16.96;46.28
75945;BME280;64628;50.104;14.614;2023-07-31T04:58:41;98445.59;;;17.26;46.20
75945;BME280;64628;50.104;14.614;2023-07-31T05:01:07;98447.39;;;17.30;46.56
75945;BME280;64628;50.104;14.614;2023-07-31T05:03:32;98451.03;;;17.16;47.14
75945;BME280;64628;50.104;14.614;2023-07-31T05:05:58;98450.78;;;17.70;47.09
75945;BME280;64628;50.104;14.614;2023-07-31T05:08:23;98449.93;;;17.57;46.87
75945;BME280;64628;50.104;14.614;2023-07-31T05:10:48;98453.14;;;17.38;46.48
75945;BME280;64628;50.104;14.614;2023-07-31T05:13:14;98451.90;;;17.30;46.27
75945;BME280;64628;50.104;14.614;2023-07-31T05:15:41;98456.06;;;17.48;45.80
75945;BME280;64628;50.104;14.614;2023-07-31T05:18:04;98453.63;;;17.74;45.60
75945;BME280;64628;50.104;14.614;2023-07-31T05:20:30;98454.34;;;17.58;45.18
75945;BME280;64628;50.104;14.614;2023-07-31T05:22:55;98456.64;;;17.80;44.87
75945;BME280;64628;50.104;14.614;2023-07-31T05:25:20;98460.77;;;17.97;44.82
75945;BME280;64628;50.104;14.614;2023-07-31T05:27:45;98460.76;;;18.43;44.42
75945;BME280;64628;50.104;14.614;2023-07-31T05:30:11;98460.62;;;18.57;43.84
75945;BME280;64628;50.104;14.614;2023-07-31T05:32:35;98457.14;;;18.16;43.98
75945;BME280;64628;50.104;14.614;2023-07-31T05:35:01;98457.24;;;18.53;43.28
75945;BME280;64628;50.104;14.614;2023-07-31T05:37:26;98454.91;;;18.70;43.58
75945;BME280;64628;50.104;14.614;2023-07-31T05:39:51;98454.91;;;18.62;42.94
75945;BME280;64628;50.104;14.614;2023-07-31T05:42:17;98458.39;;;19.15;42.89
75945;BME280;64628;50.104;14.614;2023-07-31T05:44:42;98455.71;;;18.80;42.53
75945;BME280;64628;50.104;14.614;2023-07-31T05:47:07;98451.98;;;18.67;42.08
75945;BME280;64628;50.104;14.614;2023-07-31T05:49:32;98453.82;;;18.70;41.70
75945;BME280;64628;50.104;14.614;2023-07-31T05:51:57;98452.92;;;18.74;41.53
75945;BME280;64628;50.104;14.614;2023-07-31T05:54:23;98455.06;;;18.84;40.92
75945;BME280;64628;50.104;14.614;2023-07-31T05:56:48;98457.62;;;18.86;40.85
75945;BME280;64628;50.104;14.614;2023-07-31T05:59:14;98454.15;;;19.22;40.83
75945;BME280;64628;50.104;14.614;2023-07-31T06:01:39;98452.27;;;19.05;40.54
75945;BME280;64628;50.104;14.614;2023-07-31T06:04:04;98452.03;;;19.15;41.12
75945;BME280;64628;50.104;14.614;2023-07-31T06:06:29;98451.45;;;19.15;40.66
75945;BME280;64628;50.104;14.614;2023-07-31T06:08:54;98441.12;;;18.81;40.04
75945;BME280;64628;50.104;14.614;2023-07-31T06:11:20;98437.79;;;19.28;39.68
75945;BME280;64628;50.104;14.614;2023-07-31T06:13:44;98440.73;;;19.44;39.78
75945;BME280;64628;50.104;14.614;2023-07-31T06:16:09;98432.09;;;19.27;39.33
75945;BME280;64628;50.104;14.614;2023-07-31T06:18:37;98431.72;;;19.18;39.68
75945;BME280;64628;50.104;14.614;2023-07-31T06:21:01;98430.29;;;19.63;38.81
75945;BME280;64628;50.104;14.614;2023-07-31T06:23:36;98430.49;;;19.75;37.93
75945;BME280;64628;50.104;14.614;2023-07-31T06:25:52;98423.18;;;20.51;36.15
75945;BME280;64628;50.104;14.614;2023-07-31T06:28:17;98424.39;;;20.44;36.79
75945;BME280;64628;50.104;14.614;2023-07-31T06:30:48;98425.66;;;20.15;36.12
75945;BME280;64628;50.104;14.614;2023-07-31T06:33:17;98424.15;;;20.63;36.68
75945;BME280;64628;50.104;14.614;2023-07-31T06:35:35;98423.52;;;20.73;36.80
75945;BME280;64628;50.104;14.614;2023-07-31T06:37:58;98416.73;;;20.42;36.63
75945;BME280;64628;50.104;14.614;2023-07-31T06:40:23;98415.51;;;21.48;36.80
75945;BME280;64628;50.104;14.614;2023-07-31T06:42:48;98419.36;;;21.39;36.54
75945;BME280;64628;50.104;14.614;2023-07-31T06:45:13;98416.30;;;20.36;37.26
75945;BME280;64628;50.104;14.614;2023-07-31T06:47:38;98415.10;;;20.58;37.08
75945;BME280;64628;50.104;14.614;2023-07-31T06:50:04;98413.74;;;20.62;37.43
75945;BME280;64628;50.104;14.614;2023-07-31T06:52:29;98409.70;;;20.67;37.35
75945;BME280;64628;50.104;14.614;2023-07-31T06:55:02;98410.98;;;20.55;37.23
75945;BME280;64628;50.104;14.614;2023-07-31T06:57:19;98410.72;;;20.93;37.17
75945;BME280;64628;50.104;14.614;2023-07-31T06:59:44;98413.38;;;21.10;37.20
75945;BME280;64628;50.104;14.614;2023-07-31T07:02:09;98415.60;;;20.75;36.98
75945;BME280;64628;50.104;14.614;2023-07-31T07:04:34;98411.70;;;21.23;37.21
75945;BME280;64628;50.104;14.614;2023-07-31T07:06:59;98417.67;;;20.87;37.35
75945;BME280;64628;50.104;14.614;2023-07-31T07:09:24;98419.55;;;20.84;37.39
75945;BME280;64628;50.104;14.614;2023-07-31T07:11:49;98416.47;;;21.09;36.45
75945;BME280;64628;50.104;14.614;2023-07-31T07:14:14;98413.75;;;21.04;36.98
75945;BME280;64628;50.104;14.614;2023-07-31T07:16:40;98410.08;;;21.03;36.82
75945;BME280;64628;50.104;14.614;2023-07-31T07:19:05;98410.95;;;20.98;36.79
75945;BME280;64628;50.104;14.614;2023-07-31T07:21:30;98408.46;;;21.05;36.97
75945;BME280;64628;50.104;14.614;2023-07-31T07:23:55;98408.49;;;21.34;36.82
75945;BME280;64628;50.104;14.614;2023-07-31T07:26:20;98411.34;;;21.75;36.10
75945;BME280;64628;50.104;14.614;2023-07-31T07:28:45;98412.37;;;21.78;35.68
75945;BME280;64628;50.104;14.614;2023-07-31T07:31:11;98403.32;;;21.70;36.12
75945;BME280;64628;50.104;14.614;2023-07-31T07:33:36;98416.62;;;21.67;35.24
75945;BME280;64628;50.104;14.614;2023-07-31T07:36:01;98420.23;;;21.52;36.13
75945;BME280;64628;50.104;14.614;2023-07-31T07:38:26;98419.69;;;21.70;35.97
75945;BME280;64628;50.104;14.614;2023-07-31T07:40:51;98413.97;;;21.43;36.61
75945;BME280;64628;50.104;14.614;2023-07-31T07:43:16;98412.18;;;21.44;34.96
75945;BME280;64628;50.104;14.614;2023-07-31T07:45:41;98415.74;;;21.59;35.20
75945;BME280;64628;50.104;14.614;2023-07-31T07:48:06;98407.23;;;21.66;35.13
75945;BME280;64628;50.104;14.614;2023-07-31T07:50:32;98408.82;;;21.48;35.63
75945;BME280;64628;50.104;14.614;2023-07-31T07:52:56;98412.53;;;21.36;36.05
75945;BME280;64628;50.104;14.614;2023-07-31T07:55:26;98407.95;;;21.30;35.23
75945;BME280;64628;50.104;14.614;2023-07-31T07:57:47;98408.90;;;21.69;35.18
75945;BME280;64628;50.104;14.614;2023-07-31T08:00:27;98409.23;;;21.89;35.23
75945;BME280;64628;50.104;14.614;2023-07-31T08:02:41;98411.36;;;22.27;34.20
75945;BME280;64628;50.104;14.614;2023-07-31T08:05:02;98415.88;;;22.37;33.64
75945;BME280;64628;50.104;14.614;2023-07-31T08:07:32;98428.83;;;22.04;33.87
75945;BME280;64628;50.104;14.614;2023-07-31T08:09:53;98420.84;;;22.56;33.73
75945;BME280;64628;50.104;14.614;2023-07-31T08:12:29;98425.51;;;22.26;33.51
75945;BME280;64628;50.104;14.614;2023-07-31T08:14:42;98423.29;;;22.51;33.40
75945;BME280;64628;50.104;14.614;2023-07-31T08:17:17;98418.33;;;22.51;33.27
75945;BME280;64628;50.104;14.614;2023-07-31T08:19:33;98423.86;;;22.73;32.93
75945;BME280;64628;50.104;14.614;2023-07-31T08:22:03;98415.52;;;22.72;33.48
75945;BME280;64628;50.104;14.614;2023-07-31T08:24:23;98412.95;;;23.09;33.08
75945;BME280;64628;50.104;14.614;2023-07-31T08:26:48;98417.77;;;23.08;32.01
75945;BME280;64628;50.104;14.614;2023-07-31T08:29:14;98419.79;;;23.18;32.00
75945;BME280;64628;50.104;14.614;2023-07-31T08:31:43;98423.86;;;23.68;31.50
75945;BME280;64628;50.104;14.614;2023-07-31T08:34:05;98430.36;;;24.23;31.22
75945;BME280;64628;50.104;14.614;2023-07-31T08:36:30;98430.76;;;24.39;30.60
75945;BME280;64628;50.104;14.614;2023-07-31T08:38:55;98425.85;;;23.91;30.41
75945;BME280;64628;50.104;14.614;2023-07-31T08:41:20;98425.78;;;23.92;30.40
75945;BME280;64628;50.104;14.614;2023-07-31T08:43:46;98423.36;;;22.89;31.75
75945;BME280;64628;50.104;14.614;2023-07-31T08:46:10;98418.55;;;22.54;31.85
75945;BME280;64628;50.104;14.614;2023-07-31T08:48:36;98421.15;;;22.47;32.46
75945;BME280;64628;50.104;14.614;2023-07-31T08:51:00;98424.19;;;22.17;32.61
75945;BME280;64628;50.104;14.614;2023-07-31T08:53:25;98430.26;;;22.11;33.03
75945;BME280;64628;50.104;14.614;2023-07-31T08:55:52;98430.52;;;21.86;33.06
75945;BME280;64628;50.104;14.614;2023-07-31T08:58:15;98434.04;;;22.21;33.17
75945;BME280;64628;50.104;14.614;2023-07-31T09:00:41;98435.91;;;21.71;33.80
75945;BME280;64628;50.104;14.614;2023-07-31T09:03:09;98434.42;;;22.39;33.90
75945;BME280;64628;50.104;14.614;2023-07-31T09:05:31;98431.91;;;22.22;34.49
75945;BME280;64628;50.104;14.614;2023-07-31T09:07:56;98431.31;;;21.75;34.07
75945;BME280;64628;50.104;14.614;2023-07-31T09:10:20;98431.92;;;21.49;34.42
75945;BME280;64628;50.104;14.614;2023-07-31T09:12:46;98428.88;;;21.93;34.56
75945;BME280;64628;50.104;14.614;2023-07-31T09:15:11;98427.30;;;21.65;34.38
75945;BME280;64628;50.104;14.614;2023-07-31T09:17:37;98432.82;;;22.05;34.57
75945;BME280;64628;50.104;14.614;2023-07-31T09:22:31;98430.62;;;21.77;34.13
75945;BME280;64628;50.104;14.614;2023-07-31T09:24:51;98428.03;;;21.90;34.52
75945;BME280;64628;50.104;14.614;2023-07-31T09:27:16;98425.49;;;22.12;34.17
75945;BME280;64628;50.104;14.614;2023-07-31T09:29:42;98425.10;;;21.92;34.18
75945;BME280;64628;50.104;14.614;2023-07-31T09:32:15;98419.11;;;22.34;33.61
75945;BME280;64628;50.104;14.614;2023-07-31T09:34:38;98422.23;;;22.60;33.95
75945;BME280;64628;50.104;14.614;2023-07-31T09:37:01;98418.98;;;22.16;34.04
75945;BME280;64628;50.104;14.614;2023-07-31T09:39:22;98411.77;;;22.39;33.75
75945;BME280;64628;50.104;14.614;2023-07-31T09:41:53;98408.82;;;22.68;33.76
75945;BME280;64628;50.104;14.614;2023-07-31T09:44:12;98408.67;;;22.36;33.53
75945;BME280;64628;50.104;14.614;2023-07-31T09:46:38;98412.60;;;22.53;33.02
75945;BME280;64628;50.104;14.614;2023-07-31T09:49:07;98406.19;;;23.52;32.20
75945;BME280;64628;50.104;14.614;2023-07-31T09:51:29;98401.27;;;23.23;32.12
75945;BME280;64628;50.104;14.614;2023-07-31T09:53:54;98399.30;;;23.70;31.56
75945;BME280;64628;50.104;14.614;2023-07-31T09:56:21;98399.09;;;23.64;31.32
75945;BME280;64628;50.104;14.614;2023-07-31T09:58:54;98390.14;;;23.60;31.23
75945;BME280;64628;50.104;14.614;2023-07-31T10:01:15;98388.20;;;23.64;31.17
75945;BME280;64628;50.104;14.614;2023-07-31T10:03:35;98386.64;;;23.56;31.43
75945;BME280;64628;50.104;14.614;2023-07-31T10:06:07;98379.44;;;23.56;31.21
75945;BME280;64628;50.104;14.614;2023-07-31T10:08:34;98373.84;;;23.51;31.91
75945;BME280;64628;50.104;14.614;2023-07-31T10:10:52;98369.64;;;24.60;31.18
75945;BME280;64628;50.104;14.614;2023-07-31T10:13:18;98353.68;;;25.29;30.01
75945;BME280;64628;50.104;14.614;2023-07-31T10:15:48;98356.01;;;25.84;29.58
75945;BME280;64628;50.104;14.614;2023-07-31T10:18:14;98350.38;;;25.79;28.46
75945;BME280;64628;50.104;14.614;2023-07-31T10:20:41;98344.25;;;25.86;28.33
75945;BME280;64628;50.104;14.614;2023-07-31T10:23:02;98349.45;;;25.72;28.71
75945;BME280;64628;50.104;14.614;2023-07-31T10:25:28;98344.05;;;25.57;28.92
75945;BME280;64628;50.104;14.614;2023-07-31T10:27:58;98335.55;;;25.93;28.64
75945;BME280;64628;50.104;14.614;2023-07-31T10:30:20;98332.86;;;26.60;28.60
75945;BME280;64628;50.104;14.614;2023-07-31T10:32:44;98326.62;;;26.95;27.48
75945;BME280;64628;50.104;14.614;2023-07-31T10:37:38;98314.41;;;27.56;26.71
75945;BME280;64628;50.104;14.614;2023-07-31T10:40:10;98318.33;;;27.90;25.82
75945;BME280;64628;50.104;14.614;2023-07-31T10:42:29;98311.73;;;27.33;26.17
75945;BME280;64628;50.104;14.614;2023-07-31T10:44:57;98310.67;;;27.10;25.73
75945;BME280;64628;50.104;14.614;2023-07-31T10:47:20;98309.22;;;27.02;26.05
75945;BME280;64628;50.104;14.614;2023-07-31T10:49:50;98305.10;;;26.73;26.47
75945;BME280;64628;50.104;14.614;2023-07-31T10:52:21;98299.02;;;27.10;26.47
75945;BME280;64628;50.104;14.614;2023-07-31T10:54:37;98298.77;;;27.04;26.49
75945;BME280;64628;50.104;14.614;2023-07-31T10:59:27;98292.55;;;26.95;26.57
75945;BME280;64628;50.104;14.614;2023-07-31T11:01:56;98285.62;;;27.15;26.95
75945;BME280;64628;50.104;14.614;2023-07-31T11:04:23;98280.69;;;26.31;27.12
75945;BME280;64628;50.104;14.614;2023-07-31T11:06:56;98283.77;;;26.88;27.07
75945;BME280;64628;50.104;14.614;2023-07-31T11:09:14;98282.01;;;26.75;27.29
75945;BME280;64628;50.104;14.614;2023-07-31T11:11:36;98275.20;;;26.94;27.21
75945;BME280;64628;50.104;14.614;2023-07-31T11:14:06;98274.47;;;27.09;26.94
75945;BME280;64628;50.104;14.614;2023-07-31T11:16:37;98280.64;;;26.94;26.51
75945;BME280;64628;50.104;14.614;2023-07-31T11:18:54;98273.32;;;27.17;26.71
75945;BME280;64628;50.104;14.614;2023-07-31T11:21:20;98269.02;;;27.04;27.40
75945;BME280;64628;50.104;14.614;2023-07-31T11:23:46;98266.99;;;27.19;26.70
75945;BME280;64628;50.104;14.614;2023-07-31T11:26:11;98267.50;;;27.31;26.36
75945;BME280;64628;50.104;14.614;2023-07-31T11:28:37;98267.02;;;27.19;26.86
75945;BME280;64628;50.104;14.614;2023-07-31T11:31:02;98270.01;;;26.88;27.01
75945;BME280;64628;50.104;14.614;2023-07-31T11:33:33;98265.66;;;26.73;27.06
75945;BME280;64628;50.104;14.614;2023-07-31T11:35:53;98267.67;;;26.62;27.60
75945;BME280;64628;50.104;14.614;2023-07-31T11:38:24;98265.49;;;26.83;27.52
75945;BME280;64628;50.104;14.614;2023-07-31T11:40:44;98264.65;;;26.73;27.45
75945;BME280;64628;50.104;14.614;2023-07-31T11:43:15;98267.47;;;26.40;27.40
75945;BME280;64628;50.104;14.614;2023-07-31T11:45:41;98261.09;;;25.93;28.11
75945;BME280;64628;50.104;14.614;2023-07-31T11:48:02;98262.37;;;25.96;28.05
75945;BME280;64628;50.104;14.614;2023-07-31T11:50:28;98256.97;;;26.50;27.65
75945;BME280;64628;50.104;14.614;2023-07-31T11:52:56;98259.87;;;26.35;27.36
75945;BME280;64628;50.104;14.614;2023-07-31T11:55:19;98258.81;;;26.22;28.05
75945;BME280;64628;50.104;14.614;2023-07-31T11:57:46;98257.34;;;26.29;27.33
75945;BME280;64628;50.104;14.614;2023-07-31T12:00:12;98255.26;;;26.38;27.76
75945;BME280;64628;50.104;14.614;2023-07-31T12:02:36;98252.73;;;26.33;27.38
75945;BME280;64628;50.104;14.614;2023-07-31T12:05:02;98251.99;;;25.76;27.88
75945;BME280;64628;50.104;14.614;2023-07-31T12:07:28;98242.34;;;25.89;27.51
75945;BME280;64628;50.104;14.614;2023-07-31T12:09:54;98241.09;;;26.24;27.62
75945;BME280;64628;50.104;14.614;2023-07-31T12:12:21;98236.82;;;26.46;27.04
75945;BME280;64628;50.104;14.614;2023-07-31T12:14:45;98232.82;;;26.82;26.87
75945;BME280;64628;50.104;14.614;2023-07-31T12:17:11;98230.39;;;26.81;26.67
75945;BME280;64628;50.104;14.614;2023-07-31T12:19:37;98234.16;;;26.77;26.40
75945;BME280;64628;50.104;14.614;2023-07-31T12:22:11;98229.77;;;26.89;26.30
75945;BME280;64628;50.104;14.614;2023-07-31T12:24:28;98230.32;;;27.25;26.48
75945;BME280;64628;50.104;14.614;2023-07-31T12:26:54;98226.96;;;26.55;26.25
75945;BME280;64628;50.104;14.614;2023-07-31T12:29:20;98224.53;;;26.88;26.46
75945;BME280;64628;50.104;14.614;2023-07-31T12:31:46;98219.31;;;27.02;26.52
75945;BME280;64628;50.104;14.614;2023-07-31T12:34:17;98216.28;;;26.84;26.07
75945;BME280;64628;50.104;14.614;2023-07-31T12:36:37;98212.00;;;27.35;26.41
75945;BME280;64628;50.104;14.614;2023-07-31T12:39:03;98212.74;;;26.97;25.77
75945;BME280;64628;50.104;14.614;2023-07-31T12:41:28;98215.97;;;27.29;25.79
75945;BME280;64628;50.104;14.614;2023-07-31T12:43:55;98213.96;;;27.18;25.94
75945;BME280;64628;50.104;14.614;2023-07-31T12:46:20;98209.07;;;27.25;25.52
75945;BME280;64628;50.104;14.614;2023-07-31T12:48:46;98204.51;;;27.54;25.17